Lencois Paulista, Brazil
Current Conditions -  °F | °C
As of 2:00 PM on Monday 24 Nov 2014 (Local Time) from SBBU Reporting Station
Broken Clouds Broken Clouds  
Wind Chill: 86°   Ceiling: 3500
Heat Index: 93°   Visibility: 6mi
Dew Point: 73°   Wind: 0mph
Humidity: 66%   Direction: NA
Pressure: 29.94"   Gusts: NA
Location:  22.59°S, 48.8°W
Report Text: SBBU 241600Z 00000KT 9999 BKN035 SCT100 30/23 Q1014
Loading
Personal Weather Stations






























Interactive Weather Map New forecast layout! Learn more

10-Day Weather Forecast

Advertisements
Track Severe Weather on mobile